地図

経路データ

SID SEASON NUMBER BASIN SUBBASIN NAME ISO_TIME NATURE LAT LON WMO_WIND WMO_PRES WMO_AGENCY TRACK_TYPE DIST2LAND LANDFALL IFLAG USA_AGENCY USA_ATCF_ID USA_LAT USA_LON USA_RECORD USA_STATUS USA_WIND USA_PRES USA_SSHS USA_R34_NE USA_R34_SE USA_R34_SW USA_R34_NW USA_R50_NE USA_R50_SE USA_R50_SW USA_R50_NW USA_R64_NE USA_R64_SE USA_R64_SW USA_R64_NW USA_POCI USA_ROCI USA_RMW USA_EYE TOKYO_LAT TOKYO_LON TOKYO_GRADE TOKYO_WIND TOKYO_PRES TOKYO_R50_DIR TOKYO_R50_LONG TOKYO_R50_SHORT TOKYO_R30_DIR TOKYO_R30_LONG TOKYO_R30_SHORT TOKYO_LAND CMA_LAT CMA_LON CMA_CAT CMA_WIND CMA_PRES HKO_LAT HKO_LON HKO_CAT HKO_WIND HKO_PRES NEWDELHI_LAT NEWDELHI_LON NEWDELHI_GRADE NEWDELHI_WIND NEWDELHI_PRES NEWDELHI_CI NEWDELHI_DP NEWDELHI_POCI REUNION_LAT REUNION_LON REUNION_TYPE REUNION_WIND REUNION_PRES REUNION_TNUM REUNION_CI REUNION_RMW REUNION_R34_NE REUNION_R34_SE REUNION_R34_SW REUNION_R34_NW REUNION_R50_NE REUNION_R50_SE REUNION_R50_SW REUNION_R50_NW REUNION_R64_NE REUNION_R64_SE REUNION_R64_SW REUNION_R64_NW BOM_LAT BOM_LON BOM_TYPE BOM_WIND BOM_PRES BOM_TNUM BOM_CI BOM_RMW BOM_R34_NE BOM_R34_SE BOM_R34_SW BOM_R34_NW BOM_R50_NE BOM_R50_SE BOM_R50_SW BOM_R50_NW BOM_R64_NE BOM_R64_SE BOM_R64_SW BOM_R64_NW BOM_ROCI BOM_POCI BOM_EYE BOM_POS_METHOD BOM_PRES_METHOD NADI_LAT NADI_LON NADI_CAT NADI_WIND NADI_PRES WELLINGTON_LAT WELLINGTON_LON WELLINGTON_WIND WELLINGTON_PRES DS824_LAT DS824_LON DS824_STAGE DS824_WIND DS824_PRES TD9636_LAT TD9636_LON TD9636_STAGE TD9636_WIND TD9636_PRES TD9635_LAT TD9635_LON TD9635_WIND TD9635_PRES TD9635_ROCI NEUMANN_LAT NEUMANN_LON NEUMANN_CLASS NEUMANN_WIND NEUMANN_PRES MLC_LAT MLC_LON MLC_CLASS MLC_WIND MLC_PRES USA_GUST BOM_GUST BOM_GUST_PER REUNION_GUST REUNION_GUST_PER USA_SEAHGT USA_SEARAD_NE USA_SEARAD_SE USA_SEARAD_SW USA_SEARAD_NW STORM_SPEED STORM_DIR
1985183N08136 1985 50 WP MM NOT_NAMED 1985-07-02 06:00:00 TS 8.00000 136.000 main 975 975 __O___________ -1 8.00000 136.000 0 19 1006 8 58
1985183N08136 1985 50 WP MM NOT_NAMED 1985-07-02 09:00:00 TS 8.22010 136.358 main 1001 1001 __P___________ -1 8.22010 136.358 0 19 1006 9 54
1985183N08136 1985 50 WP MM NOT_NAMED 1985-07-02 12:00:00 TS 8.50000 136.700 main 1038 1038 __O___________ -1 8.50000 136.700 0 19 1006 9 44
1985183N08136 1985 50 WP MM NOT_NAMED 1985-07-02 15:00:00 TS 8.86487 136.977 main 1086 1086 __P___________ -1 8.86487 136.977 0 19 1006 8 23
1985183N08136 1985 50 WP MM NOT_NAMED 1985-07-02 18:00:00 TS 9.20000 137.000 main 1120 1116 __O___________ -1 9.20000 137.000 0 19 1006 7 326
1985183N08136 1985 50 WP MM NOT_NAMED 1985-07-02 21:00:00 TS 9.40257 136.613 main 1116 1053 __P___________ -1 9.40257 136.613 0 19 1006 10 287
1985183N08136 1985 50 WP MM NOT_NAMED 1985-07-03 00:00:00 TS 9.50000 136.000 main 1053 999 __O___________ -1 9.50000 136.000 0 19 1006 12 276
1985183N08136 1985 50 WP MM NOT_NAMED 1985-07-03 03:00:00 TS 9.52243 135.422 main 989 924 __P___________ -1 9.52243 135.422 0 19 1005 12 270
1985183N08136 1985 50 WP MM NOT_NAMED 1985-07-03 06:00:00 TS 9.50000 134.800 main 924 860 __O___________ -1 9.50000 134.800 0 19 1005 13 268
1985183N08136 1985 50 WP MM NOT_NAMED 1985-07-03 09:00:00 TS 9.48500 134.142 main 849 785 __P___________ -1 9.48500 134.142 0 19 1005 13 270
1985183N08136 1985 50 WP MM NOT_NAMED 1985-07-03 12:00:00 TS 9.50000 133.500 main 785 732 __O___________ -1 9.50000 133.500 0 19 1005 12 274
1985183N08136 1985 50 WP MM NOT_NAMED 1985-07-03 15:00:00 TS 9.56222 132.957 main 735 676 __P___________ -1 9.56222 132.957 0 19 1005 11 280
1985183N08136 1985 50 WP MM NOT_NAMED 1985-07-03 18:00:00 TS 9.70000 132.400 main 676 616 __O___________ -1 9.70000 132.400 0 19 1005 12 287
1985183N08136 1985 50 WP MM NOT_NAMED 1985-07-03 21:00:00 TS 9.91978 131.752 main 616 549 __P___________ -1 9.91978 131.752 0 24 1004 15 290
1985183N08136 1985 50 WP MM NOT_NAMED 1985-07-04 00:00:00 TS 10.2000 131.020 main 538 458 __OO__________ -1 10.2000 131.000 1 29 1004 10.2000 131.100 TD 25 1004 17 289
1985183N08136 1985 50 WP MM NOT_NAMED 1985-07-04 03:00:00 TS 10.4720 130.115 main 451 372 __PP__________ -1 10.4326 130.114 1 29 1004 10.5508 130.116 TD 25 1003 19 290
1985183N08136 1985 50 WP MM NOT_NAMED 1985-07-04 06:00:00 TS 10.8429 129.200 main 372 296 __OO__________ -1 10.8000 129.200 1 29 1004 10.9000 129.200 TD 25 1002 19 298
1985183N08136 1985 50 WP MM NOT_NAMED 1985-07-04 09:00:00 TS 11.3781 128.415 main 287 225 __PP__________ -1 11.5067 128.438 1 29 1003 11.2495 128.392 TD 25 1001 19 304
1985183N08136 1985 50 WP MM NOT_NAMED 1985-07-04 12:00:00 TS 11.9000 127.600 main 220 130 __OO__________ -1 12.2000 127.600 1 29 1002 11.6000 127.600 TD 25 1000 20 296
1985183N08136 1985 50 WP MM NOT_NAMED 1985-07-04 15:00:00 TS 12.2302 126.593 main 119 34 __PP__________ -1 12.4880 126.471 1 29 1002 11.9723 126.715 TD 25 999 21 287
1985183N08136 1985 50 WP MM NOT_NAMED 1985-07-04 18:00:00 TS 12.5000 125.550 main 34 11 __OO__________ -1 12.7000 125.300 1 29 1003 12.3000 125.800 TD 25 998 20 287
1985183N08136 1985 50 WP MM NOT_NAMED 1985-07-04 21:00:00 TS 12.8172 124.591 main 33 0 __PP__________ -1 13.1193 124.320 1 29 1003 12.5150 124.862 TD 25 998 19 290
1985183N08136 1985 50 WP MM NOT_NAMED 1985-07-05 00:00:00 TS 13.1500 123.700 main 0 0 __OO__________ -1 13.6000 123.400 1 29 1004 12.7000 124.000 TD 25 998 18 292
1985183N08136 1985 50 WP MM NOT_NAMED 1985-07-05 03:00:00 TS 13.4963 122.829 main 15 0 __PP__________ -1 14.0578 122.375 1 29 1004 12.9347 123.282 TD 25 999 17 294
1985183N08136 1985 50 WP MM NOT_NAMED 1985-07-05 06:00:00 TS 13.8500 122.100 main 0 0 __OO__________ -1 14.5000 121.500 1 29 1004 13.2000 122.700 TD 25 1000 14 300
1985183N08136 1985 50 WP MM NOT_NAMED 1985-07-05 09:00:00 TS 14.1845 121.590 main 0 0 __PP__________ -1 14.8992 120.989 1 29 1004 13.4699 122.190 TD 25 1000 11 309
1985183N08136 1985 50 WP MM NOT_NAMED 1985-07-05 12:00:00 TS 14.5500 121.200 main 0 0 __OO__________ -1 15.3000 120.600 1 29 1004 13.8000 121.800 TD 25 1000 11 316
1985183N08136 1985 50 WP MM NOT_NAMED 1985-07-05 15:00:00 TS 14.9925 120.785 main 0 0 __PP__________ -1 15.7802 120.028 1 29 1002 14.2048 121.542 TD 23 1000 12 319
1985183N08136 1985 50 WP MM NOT_NAMED 1985-07-05 18:00:00 TS 15.4500 120.400 main 0 0 __OO__________ -1 16.2000 119.500 1 29 1000 14.7000 121.300 TD 22 1000 11 322
1985183N08136 1985 50 WP MM NOT_NAMED 1985-07-05 21:00:00 TS 15.8723 120.061 main 0 0 __PP__________ -1 16.4372 119.170 1 29 999 15.3073 120.953 TD 22 1000 11 320
1985183N08136 1985 50 WP MM NOT_NAMED 1985-07-06 00:00:00 TS 16.2500 119.700 main 10 10 __OO__________ -1 16.6000 118.900 1 29 998 15.9000 120.500 TD 22 1000 11 312
1985183N08136 1985 50 WP MM NOT_NAMED 1985-07-06 03:00:00 TS 16.5988 119.233 main 72 72 __PP__________ -1 16.8151 118.535 1 29 998 16.3825 119.930 TD 23 1000 11 303
1985183N08136 1985 50 WP MM NOT_NAMED 1985-07-06 06:00:00 TS 16.8500 118.750 main 125 120 __OO__________ -1 17.0000 118.200 1 29 998 16.7000 119.300 TD 25 1000 9 293
1985183N08136 1985 50 WP MM NOT_NAMED 1985-07-06 09:00:00 TS 16.9586 118.342 main 178 178 __PP__________ -1 17.1223 118.007 1 29 998 16.7950 118.677 TD 25 999 8 281
1985183N08136 1985 50 WP MM NOT_NAMED 1985-07-06 12:00:00 TS 17.0000 117.950 main 207 207 __OO__________ -1 17.2000 117.800 1 29 998 16.8000 118.100 TD 25 998 8 278
1985183N08136 1985 50 WP MM NOT_NAMED 1985-07-06 15:00:00 TS 17.0711 117.529 main 260 260 __PP__________ -1 17.2575 117.445 1 29 998 16.8848 117.612 TD 25 998 8 280
1985183N08136 1985 50 WP MM NOT_NAMED 1985-07-06 18:00:00 TS 17.1500 117.100 main 304 304 __OO__________ -1 17.3000 117.000 1 29 998 17.0000 117.200 TD 25 998 9 281
1985183N08136 1985 50 WP MM NOT_NAMED 1985-07-06 21:00:00 TS 17.2388 116.656 main 345 345 __PP__________ -1 17.3352 116.485 1 29 998 17.1424 116.827 TD 25 998 8 284
1985183N08136 1985 50 WP MM NOT_NAMED 1985-07-07 00:00:00 TS 17.3500 116.250 main 392 389 __OO__________ -1 17.4000 116.000 1 29 998 17.3000 116.500 TD 25 998 7 289
1985183N08136 1985 50 WP MM NOT_NAMED 1985-07-07 03:00:00 TS 17.4812 115.916 main 436 436 __PP__________ -1 17.5348 115.655 1 29 998 17.4275 116.177 TD 25 998 6 298
1985183N08136 1985 50 WP MM NOT_NAMED 1985-07-07 06:00:00 TS 17.6500 115.650 main 463 463 __OO__________ -1 17.7000 115.400 1 29 998 17.6000 115.900 TD 25 998 6 307
1985183N08136 1985 50 WP MM NOT_NAMED 1985-07-07 09:00:00 TS 17.8412 115.416 main 497 481 __PP__________ -1 17.8125 115.170 1 29 998 17.8700 115.663 TD 25 998 6 320
1985183N08136 1985 50 WP MM NOT_NAMED 1985-07-07 12:00:00 TS 18.1000 115.250 main 481 444 __OO__________ -1 18.0000 115.000 1 29 998 18.2000 115.500 TD 25 998 7 337
1985183N08136 1985 50 WP MM NOT_NAMED 1985-07-07 15:00:00 TS 18.4600 115.141 main 433 400 __PP__________ -1 18.3700 114.870 1 29 998 18.5500 115.412 TD 25 998 8 349
1985183N08136 1985 50 WP MM NOT_NAMED 1985-07-07 18:00:00 TS 18.8500 115.100 main 389 367 __OO__________ -1 18.8000 114.800 1 29 998 18.9000 115.400 TD 25 998 7 356
1985183N08136 1985 50 WP MM NOT_NAMED 1985-07-07 21:00:00 TS 19.1375 115.088 main 367 323 __PP__________ -1 19.1125 114.755 1 29 998 19.1625 115.420 TD 25 998 7 4
1985183N08136 1985 50 WP MM NOT_NAMED 1985-07-08 00:00:00 TS 19.5000 115.150 main 326 277 __OO__________ -1 19.5000 114.800 1 29 998 19.5000 115.500 TD 25 998 10 12
1985183N08136 1985 50 WP MM NOT_NAMED 1985-07-08 03:00:00 TS 20.0650 115.299 main 266 207 __PP__________ -1 20.0900 114.955 1 29 997 20.0401 115.642 TD 27 997 13 13
1985183N08136 1985 50 WP MM NOT_NAMED 1985-07-08 06:00:00 TS 20.7571 115.457 main 199 142 __OO__________ -1 20.8000 115.200 1 29 997 20.7000 115.800 TD 30 997 15 13
1985183N08136 1985 50 WP MM NOT_NAMED 1985-07-08 09:00:00 TS 21.4784 115.658 main 134 55 __PP__________ -1 21.5202 115.529 1 26 997 21.3950 115.915 TD 30 997 15 14
1985183N08136 1985 50 WP MM NOT_NAMED 1985-07-08 12:00:00 TS 22.2500 115.850 main 45 0 __OO__________ -1 22.3000 115.800 1 23 997 22.1000 116.000 TD 30 997 17 7
1985183N08136 1985 50 WP MM NOT_NAMED 1985-07-08 15:00:00 TS 23.1349 115.866 main 0 0 __P___________ -1 23.1349 115.866 1 21 998 TD 18 359
1985183N08136 1985 50 WP MM NOT_NAMED 1985-07-08 18:00:00 TS 24.0000 115.800 main 0 __O___________ -1 24.0000 115.800 0 19 1000 17 356

デジタル台風データ・検索

IBTrACS Databaseについて

本データベースは、米国NOAAが公開する1842年以降の世界の熱帯低気圧のベストトラックデータアーカイブInternational Best Track Archive for Climate Stewardship (IBTrACS)を、ウェブで閲覧しやすい形式に変換したものです。

最終更新日:2021-12-01